Time;durP1;ratioP1;P1;durP2;ratioP2;P2;SDS_P1;SDS_P2;PMS_P1;PMS_P2;Temp;Humidity;BMP_temperature;BMP_pressure;BME280_temperature;BME280_humidity;BME280_pressure;Samples;Min_cycle;Max_cycle;Signal;HPM_P1;HPM_P2
2022/08/20 00:00:41;;;;;;;20.25;14.20;;;21.20;99.90;;;;;;5020327;28;20181;-82
2022/08/20 00:03:13;;;;;;;20.30;14.30;;;21.20;99.90;;;;;;5018016;28;20196;-83
2022/08/20 00:05:43;;;;;;;21.33;14.52;;;21.20;99.90;;;;;;5017733;28;20595;-83
2022/08/20 00:08:10;;;;;;;25.38;14.57;;;21.20;99.90;;;;;;5017586;28;20654;-82
2022/08/20 00:10:39;;;;;;;20.17;13.93;;;21.10;99.90;;;;;;5036274;28;20237;-81
2022/08/20 00:13:08;;;;;;;21.27;14.77;;;21.00;99.90;;;;;;5015955;28;20198;-82
2022/08/20 00:15:35;;;;;;;25.20;15.30;;;20.90;99.90;;;;;;5017192;28;20605;-81
2022/08/20 00:18:02;;;;;;;23.73;14.85;;;20.90;99.90;;;;;;5034720;28;20174;-82
2022/08/20 00:20:31;;;;;;;24.60;16.35;;;20.80;99.90;;;;;;5017541;28;20630;-81
2022/08/20 00:22:57;;;;;;;24.17;15.15;;;20.80;99.90;;;;;;5016552;28;20204;-82
2022/08/20 00:25:26;;;;;;;25.13;16.10;;;20.80;99.90;;;;;;5016960;28;20190;-82
2022/08/20 00:27:51;;;;;;;25.70;15.82;;;20.80;99.90;;;;;;5017033;28;20197;-83
2022/08/20 00:30:17;;;;;;;26.60;15.98;;;20.80;99.90;;;;;;5017742;28;20285;-82
2022/08/20 00:32:46;;;;;;;23.27;16.00;;;20.80;99.90;;;;;;5016424;28;20193;-81
2022/08/20 00:35:14;;;;;;;26.67;15.68;;;20.80;99.90;;;;;;5016010;28;20745;-82
2022/08/20 00:37:40;;;;;;;27.80;16.05;;;20.80;99.90;;;;;;5016267;28;20194;-82
2022/08/20 00:40:08;;;;;;;26.73;16.48;;;20.80;99.90;;;;;;5016451;28;20173;-81
2022/08/20 00:42:49;;;;;;;24.48;14.90;;;20.70;99.90;;;;;;5016783;28;20202;-82
2022/08/20 00:45:16;;;;;;;24.98;16.20;;;20.60;99.90;;;;;;5017217;28;20224;-82
2022/08/20 00:47:42;;;;;;;26.90;16.50;;;20.50;99.90;;;;;;5018266;28;20714;-83
2022/08/20 00:50:11;;;;;;;25.40;16.83;;;20.50;99.90;;;;;;5018840;28;20263;-83
2022/08/20 00:52:38;;;;;;;33.55;17.98;;;20.50;99.90;;;;;;5016409;28;20586;-83
2022/08/20 00:55:06;;;;;;;31.65;16.08;;;20.50;99.90;;;;;;5016540;28;20194;-84
2022/08/20 00:57:45;;;;;;;24.10;14.35;;;20.50;99.90;;;;;;5016692;28;20170;-81
2022/08/20 01:00:19;;;;;;;22.98;14.40;;;20.30;99.90;;;;;;5017600;28;20173;-82
2022/08/20 01:02:46;;;;;;;30.60;15.45;;;20.30;99.90;;;;;;5016503;28;20250;-84
2022/08/20 01:05:12;;;;;;;26.35;15.90;;;20.20;99.90;;;;;;5016495;28;20205;-81
2022/08/20 01:07:38;;;;;;;26.17;15.85;;;20.10;99.90;;;;;;5016443;28;20197;-83
2022/08/20 01:10:15;;;;;;;29.67;17.02;;;20.10;99.90;;;;;;5016500;28;20174;-82
2022/08/20 01:12:45;;;;;;;33.38;17.00;;;20.00;99.90;;;;;;5015749;28;20216;-82
2022/08/20 01:15:15;;;;;;;28.13;16.50;;;20.10;99.90;;;;;;5015252;28;20220;-83
2022/08/20 01:17:45;;;;;;;30.75;16.92;;;20.10;99.90;;;;;;5016128;28;20166;-85
2022/08/20 01:20:18;;;;;;;24.17;14.97;;;20.00;99.90;;;;;;5016043;28;20179;-82
2022/08/20 01:23:31;;;;;;;26.03;15.67;;;20.00;99.90;;;;;;5015347;28;20284;-82
2022/08/20 01:26:23;;;;;;;27.70;14.82;;;20.00;99.90;;;;;;5015957;28;20197;-82
2022/08/20 01:29:10;;;;;;;23.73;13.70;;;20.10;99.90;;;;;;5015837;28;20162;-84
2022/08/20 01:31:38;;;;;;;23.83;12.73;;;20.00;99.90;;;;;;5015187;28;20218;-82
2022/08/20 01:34:09;;;;;;;20.97;12.53;;;20.10;99.90;;;;;;5015648;28;20240;-82
2022/08/20 01:36:44;;;;;;;18.77;12.05;;;20.30;99.90;;;;;;5015564;28;20190;-82
2022/08/20 01:39:13;;;;;;;17.23;11.55;;;20.10;99.90;;;;;;5015985;28;20201;-83
2022/08/20 01:42:07;;;;;;;19.50;11.37;;;20.10;99.90;;;;;;5014492;28;20232;-82
2022/08/20 01:44:36;;;;;;;18.23;11.50;;;20.10;99.90;;;;;;5014964;28;20287;-85
2022/08/20 01:47:32;;;;;;;17.70;12.15;;;20.00;99.90;;;;;;5015999;28;20190;-82
2022/08/20 01:50:06;;;;;;;20.38;12.45;;;20.10;99.90;;;;;;4999279;28;20185;-82
2022/08/20 01:52:44;;;;;;;16.60;11.68;;;20.10;99.90;;;;;;5014556;28;20239;-83
2022/08/20 01:55:10;;;;;;;20.52;12.30;;;20.10;99.90;;;;;;5014878;28;20271;-82
2022/08/20 01:57:36;;;;;;;18.08;10.93;;;20.10;99.90;;;;;;5015139;28;20174;-84
2022/08/20 02:00:11;;;;;;;20.70;11.93;;;20.00;99.90;;;;;;5015359;28;20185;-83
2022/08/20 02:02:38;;;;;;;20.02;12.25;;;20.00;99.90;;;;;;5014482;28;20558;-82
2022/08/20 02:05:04;;;;;;;20.35;11.48;;;20.00;99.90;;;;;;5014682;28;20182;-82
2022/08/20 02:07:31;;;;;;;15.25;10.85;;;19.90;99.90;;;;;;5014588;28;20174;-82
2022/08/20 02:09:57;;;;;;;17.83;11.75;;;19.90;99.90;;;;;;5014747;28;20220;-83
2022/08/20 02:12:23;;;;;;;20.83;11.85;;;20.00;99.90;;;;;;5014335;28;20672;-82
2022/08/20 02:14:51;;;;;;;19.20;11.43;;;20.00;99.90;;;;;;5014322;28;20177;-82
2022/08/20 02:17:18;;;;;;;17.02;11.70;;;19.90;99.90;;;;;;5014944;28;20194;-84
2022/08/20 02:19:57;;;;;;;20.40;12.57;;;20.00;99.90;;;;;;5015159;28;20178;-82
2022/08/20 02:22:28;;;;;;;20.65;12.60;;;20.00;99.90;;;;;;5014392;28;20193;-82
2022/08/20 02:24:54;;;;;;;22.35;15.13;;;20.00;99.90;;;;;;5014370;28;20165;-82
2022/08/20 02:27:22;;;;;;;22.48;15.57;;;19.90;99.90;;;;;;5014616;28;20261;-83
2022/08/20 02:29:48;;;;;;;24.60;15.85;;;19.80;99.90;;;;;;5014951;28;20253;-82
2022/08/20 02:32:14;;;;;;;24.75;16.35;;;19.90;99.90;;;;;;5014461;28;20198;-82
2022/08/20 02:34:40;;;;;;;24.98;15.68;;;19.90;99.90;;;;;;5015119;28;20712;-83
2022/08/20 02:37:06;;;;;;;22.23;15.40;;;20.00;99.90;;;;;;5018209;28;20201;-82
2022/08/20 02:39:32;;;;;;;23.55;14.98;;;20.00;99.90;;;;;;5018581;28;20205;-83
2022/08/20 02:41:57;;;;;;;27.65;17.17;;;20.00;99.90;;;;;;5018136;28;20232;-83
2022/08/20 02:44:24;;;;;;;24.50;16.87;;;19.90;99.90;;;;;;5018456;28;20174;-83
2022/08/20 02:46:50;;;;;;;23.33;15.65;;;19.80;99.90;;;;;;5018489;28;20289;-83
2022/08/20 02:49:17;;;;;;;27.47;17.87;;;19.90;99.90;;;;;;5019518;28;20257;-83
2022/08/20 02:51:43;;;;;;;26.45;16.27;;;19.90;99.90;;;;;;5018407;28;20538;-83
2022/08/20 02:54:10;;;;;;;25.00;16.73;;;19.80;99.90;;;;;;5018243;28;20184;-84
2022/08/20 02:56:36;;;;;;;21.63;15.25;;;19.80;99.90;;;;;;5018474;28;20232;-82
2022/08/20 02:59:02;;;;;;;25.20;15.23;;;19.80;99.90;;;;;;5018529;28;20234;-84
2022/08/20 03:01:27;;;;;;;21.53;15.57;;;19.90;99.90;;;;;;5018026;28;20177;-82
2022/08/20 03:03:56;;;;;;;25.00;15.68;;;19.90;99.90;;;;;;5018010;28;20616;-82
2022/08/20 03:06:22;;;;;;;21.85;14.65;;;19.80;99.90;;;;;;5017821;28;20208;-82
2022/08/20 03:08:48;;;;;;;21.67;15.37;;;19.80;99.90;;;;;;5017687;28;20176;-82
2022/08/20 03:11:14;;;;;;;22.05;15.63;;;20.00;99.90;;;;;;5017594;28;20174;-82
2022/08/20 03:13:40;;;;;;;23.38;15.27;;;19.90;99.90;;;;;;5017405;28;20184;-82
2022/08/20 03:16:07;;;;;;;20.40;13.63;;;19.90;99.90;;;;;;5017635;28;20198;-82
2022/08/20 03:18:38;;;;;;;21.38;14.48;;;20.00;99.90;;;;;;5017474;28;20711;-83
2022/08/20 03:21:06;;;;;;;25.30;15.48;;;19.80;99.90;;;;;;5017708;28;20178;-82
2022/08/20 03:23:33;;;;;;;20.92;14.77;;;19.90;99.90;;;;;;5017286;28;20701;-82
2022/08/20 03:25:59;;;;;;;20.15;14.48;;;19.80;99.90;;;;;;5017126;28;20202;-82
2022/08/20 03:28:26;;;;;;;25.37;15.23;;;19.90;99.90;;;;;;5017142;28;20170;-82
2022/08/20 03:30:53;;;;;;;18.55;14.38;;;19.90;99.90;;;;;;5017545;28;20658;-82
2022/08/20 03:33:19;;;;;;;19.37;14.70;;;19.90;99.90;;;;;;5016962;28;20672;-83
2022/08/20 03:35:46;;;;;;;21.13;14.53;;;19.70;99.90;;;;;;5017101;28;20213;-82
2022/08/20 03:38:13;;;;;;;20.53;14.90;;;19.90;99.90;;;;;;5017219;28;20188;-82
2022/08/20 03:40:39;;;;;;;18.83;14.13;;;19.80;99.90;;;;;;5017537;28;20181;-82
2022/08/20 03:43:07;;;;;;;21.40;14.82;;;19.80;99.90;;;;;;5016483;28;20212;-82
2022/08/20 03:45:34;;;;;;;21.47;15.23;;;19.80;99.90;;;;;;5016698;28;20194;-82
2022/08/20 03:48:00;;;;;;;24.17;14.77;;;19.80;99.90;;;;;;5016977;28;20174;-82
2022/08/20 03:50:29;;;;;;;20.80;15.17;;;19.90;99.90;;;;;;5017455;28;20601;-82
2022/08/20 03:52:56;;;;;;;23.13;15.07;;;19.80;99.90;;;;;;5016558;28;20178;-84
2022/08/20 03:55:23;;;;;;;20.17;15.13;;;19.80;99.90;;;;;;5017028;28;20887;-83
2022/08/20 03:57:55;;;;;;;20.23;14.57;;;19.70;99.90;;;;;;5034536;28;20201;-82
2022/08/20 04:00:43;;;;;;;19.27;14.57;;;19.70;99.90;;;;;;5017228;28;20170;-83
2022/08/20 04:03:09;;;;;;;16.90;13.40;;;19.80;99.90;;;;;;5016675;28;20190;-82
2022/08/20 04:05:39;;;;;;;24.40;15.73;;;19.80;99.90;;;;;;5016722;28;20226;-84
2022/08/20 04:08:08;;;;;;;26.53;15.97;;;19.80;99.90;;;;;;5016452;28;20635;-82
2022/08/20 04:10:34;;;;;;;23.53;15.83;;;19.80;99.90;;;;;;5016903;28;20169;-84
2022/08/20 04:13:00;;;;;;;20.67;15.27;;;19.70;99.90;;;;;;5016519;28;20181;-85
2022/08/20 04:15:26;;;;;;;19.63;15.17;;;19.80;99.90;;;;;;5016443;28;20206;-85
2022/08/20 04:17:52;;;;;;;20.10;14.80;;;19.80;99.90;;;;;;5016510;28;20185;-82
2022/08/20 04:20:22;;;;;;;18.17;14.00;;;19.70;99.90;;;;;;5016592;28;20185;-83
2022/08/20 04:22:52;;;;;;;19.20;14.77;;;19.70;99.90;;;;;;5016115;28;20206;-83
2022/08/20 04:25:18;;;;;;;19.48;14.50;;;19.70;99.90;;;;;;5016393;28;20281;-84
2022/08/20 04:27:49;;;;;;;17.23;14.00;;;19.70;99.90;;;;;;5018867;28;20589;-83
2022/08/20 04:30:16;;;;;;;21.25;13.75;;;19.70;99.90;;;;;;5018955;28;20170;-85
2022/08/20 04:32:42;;;;;;;17.37;13.27;;;19.70;99.90;;;;;;5017787;28;20204;-85
2022/08/20 04:35:13;;;;;;;18.20;12.93;;;19.70;99.90;;;;;;5017872;28;20178;-83
2022/08/20 04:37:39;;;;;;;17.43;13.13;;;19.60;99.90;;;;;;5018208;28;20174;-85
2022/08/20 04:42:53;;;;;;;14.20;11.80;;;19.60;99.90;;;;;;5035813;28;20204;-83
2022/08/20 04:45:20;;;;;;;15.33;11.50;;;19.60;99.90;;;;;;5018742;28;20198;-84
2022/08/20 04:47:47;;;;;;;14.70;11.67;;;19.60;99.90;;;;;;5018766;28;20261;-84
2022/08/20 04:50:13;;;;;;;16.10;13.00;;;19.60;99.90;;;;;;5018059;28;20262;-87
2022/08/20 04:52:42;;;;;;;15.50;11.50;;;19.50;99.90;;;;;;5016607;28;20189;-84
2022/08/20 04:55:09;;;;;;;18.33;13.23;;;19.70;99.90;;;;;;5017192;28;20284;-83
2022/08/20 04:57:37;;;;;;;17.42;12.73;;;19.70;99.90;;;;;;5016424;28;20174;-86
2022/08/20 05:00:10;;;;;;;14.97;11.93;;;19.60;99.90;;;;;;5016937;28;20634;-84
2022/08/20 05:02:36;;;;;;;17.97;12.80;;;19.70;99.90;;;;;;5017147;28;20205;-83
2022/08/20 05:05:03;;;;;;;17.88;12.30;;;19.50;99.90;;;;;;5016732;28;20181;-83
2022/08/20 05:07:29;;;;;;;17.38;11.98;;;19.50;99.90;;;;;;5035385;28;20201;-84
2022/08/20 05:09:55;;;;;;;18.20;12.17;;;19.70;99.90;;;;;;5016947;28;20527;-82
2022/08/20 05:12:20;;;;;;;16.77;13.40;;;19.70;99.90;;;;;;5016611;28;20174;-83
2022/08/20 05:14:46;;;;;;;23.60;13.73;;;19.50;99.90;;;;;;5034403;28;20208;-83
2022/08/20 05:17:13;;;;;;;18.50;13.13;;;19.60;99.90;;;;;;5017046;28;20641;-83
2022/08/20 05:19:40;;;;;;;17.85;12.95;;;19.70;99.90;;;;;;5016889;28;20601;-83
2022/08/20 05:22:06;;;;;;;20.00;13.20;;;19.70;99.90;;;;;;5034086;28;20198;-83
2022/08/20 05:24:32;;;;;;;22.17;14.63;;;19.70;99.90;;;;;;5016388;28;20181;-82
2022/08/20 05:26:59;;;;;;;19.27;14.45;;;19.60;99.90;;;;;;5016549;28;20223;-82
2022/08/20 05:29:26;;;;;;;20.70;14.90;;;19.70;99.90;;;;;;5016681;28;20186;-83
2022/08/20 05:31:53;;;;;;;22.15;14.70;;;19.70;99.90;;;;;;5017163;28;20220;-83
2022/08/20 05:34:18;;;;;;;23.70;16.13;;;19.80;99.90;;;;;;5016650;28;20680;-82
2022/08/20 05:36:46;;;;;;;21.57;15.57;;;19.70;99.90;;;;;;5017125;28;20189;-83
2022/08/20 05:39:13;;;;;;;23.77;15.52;;;19.70;99.90;;;;;;5016750;28;20178;-83
2022/08/20 05:41:39;;;;;;;28.77;16.63;;;19.70;99.90;;;;;;5016182;28;20178;-82
2022/08/20 05:44:12;;;;;;;21.65;15.75;;;19.70;99.90;;;;;;5015153;28;20182;-83
2022/08/20 05:46:39;;;;;;;23.27;16.73;;;19.80;99.90;;;;;;5015171;28;20200;-82
2022/08/20 05:49:06;;;;;;;26.58;16.35;;;19.50;99.90;;;;;;5015803;28;20253;-83
2022/08/20 05:51:32;;;;;;;22.87;15.70;;;19.70;99.90;;;;;;5032904;28;20166;-82
2022/08/20 05:53:57;;;;;;;25.38;16.98;;;19.70;99.90;;;;;;5015366;28;20289;-82
2022/08/20 05:56:23;;;;;;;28.52;17.35;;;19.50;99.90;;;;;;5014967;28;20201;-82
2022/08/20 05:58:49;;;;;;;27.87;17.20;;;19.50;99.90;;;;;;5015035;28;20181;-82
2022/08/20 06:01:14;;;;;;;23.67;16.83;;;19.50;99.90;;;;;;5016332;28;20653;-83
2022/08/20 06:06:24;;;;;;;29.20;18.20;;;19.70;99.90;;;;;;5032207;28;20579;-82
2022/08/20 06:08:49;;;;;;;25.02;17.35;;;19.70;99.90;;;;;;5014524;28;20174;-82
2022/08/20 06:11:15;;;;;;;28.97;17.03;;;19.70;99.90;;;;;;5017808;28;20228;-83
2022/08/20 06:13:41;;;;;;;26.33;17.80;;;19.70;99.90;;;;;;5018632;28;20638;-84
2022/08/20 06:16:06;;;;;;;23.88;16.20;;;19.80;99.90;;;;;;5018310;28;20666;-82
2022/08/20 06:18:32;;;;;;;28.65;17.55;;;19.90;99.90;;;;;;5018648;28;20267;-82
2022/08/20 06:20:58;;;;;;;23.50;16.95;;;19.90;99.90;;;;;;5018833;28;20174;-82
2022/08/20 06:23:24;;;;;;;29.73;19.77;;;19.90;99.90;;;;;;5018355;28;20899;-82
2022/08/20 06:25:50;;;;;;;28.10;19.23;;;19.80;99.90;;;;;;5019026;28;20665;-83
2022/08/20 06:28:17;;;;;;;30.65;19.02;;;19.90;99.90;;;;;;5018883;28;20178;-83
2022/08/20 06:30:43;;;;;;;31.87;19.33;;;19.80;99.90;;;;;;5019196;28;20213;-83
2022/08/20 06:33:08;;;;;;;32.17;20.43;;;19.90;99.90;;;;;;5019798;28;20227;-84
2022/08/20 06:35:36;;;;;;;39.53;21.70;;;19.80;99.90;;;;;;5018466;28;20693;-83
2022/08/20 06:38:04;;;;;;;32.87;21.50;;;19.80;99.90;;;;;;5018617;28;20232;-84
2022/08/20 06:40:30;;;;;;;36.65;20.35;;;19.80;99.90;;;;;;5018960;28;20730;-83
2022/08/20 06:42:56;;;;;;;32.88;21.27;;;19.80;99.90;;;;;;5019688;28;20265;-83
2022/08/20 06:45:26;;;;;;;33.65;22.30;;;19.90;99.90;;;;;;5019517;28;20196;-81
2022/08/20 06:47:58;;;;;;;31.10;21.23;;;20.00;99.90;;;;;;5018468;28;20170;-83
2022/08/20 06:50:38;;;;;;;34.20;21.98;;;20.00;99.90;;;;;;5017918;28;20170;-82
2022/08/20 06:53:11;;;;;;;29.80;21.73;;;20.00;99.90;;;;;;5019867;28;20219;-82
2022/08/20 06:55:41;;;;;;;33.22;20.63;;;19.90;99.90;;;;;;5018897;28;20240;-80
2022/08/20 06:58:09;;;;;;;33.05;21.45;;;20.10;99.90;;;;;;5018917;28;20228;-80
2022/08/20 07:00:36;;;;;;;36.92;21.67;;;20.10;99.90;;;;;;5018449;28;20192;-81
2022/08/20 07:03:03;;;;;;;27.88;18.83;;;20.20;99.90;;;;;;5019976;28;20678;-82
2022/08/20 07:05:32;;;;;;;29.77;19.67;;;20.10;99.90;;;;;;5020305;28;20667;-81
2022/08/20 07:07:59;;;;;;;27.23;18.15;;;20.20;99.90;;;;;;5020378;28;20587;-80
2022/08/20 07:10:26;;;;;;;25.48;18.40;;;20.10;99.90;;;;;;5021040;28;20215;-80
2022/08/20 07:12:52;;;;;;;23.98;17.95;;;20.30;99.90;;;;;;5020799;28;20644;-81
2022/08/20 07:15:21;;;;;;;24.23;17.80;;;20.30;99.90;;;;;;5017586;28;20292;-80
2022/08/20 07:17:52;;;;;;;25.10;18.80;;;20.30;99.90;;;;;;5017642;28;20178;-80
2022/08/20 07:20:19;;;;;;;24.85;17.35;;;20.20;99.90;;;;;;5016884;28;20174;-80
2022/08/20 07:22:46;;;;;;;26.45;16.75;;;20.20;99.90;;;;;;5016915;28;20209;-81
2022/08/20 07:25:15;;;;;;;23.98;15.85;;;20.60;99.90;;;;;;5020091;28;20220;-81
2022/08/20 07:27:41;;;;;;;20.80;14.95;;;21.30;99.90;;;;;;5022463;28;20177;-82
2022/08/20 07:32:54;;;;;;;19.20;14.40;;;21.40;99.90;;;;;;5038667;28;20248;-81
2022/08/20 07:35:19;;;;;;;21.25;14.40;;;21.60;99.90;;;;;;5019764;28;20194;-81
2022/08/20 07:37:50;;;;;;;20.33;14.63;;;21.80;99.90;;;;;;5019196;28;20549;-81
2022/08/20 07:40:28;;;;;;;22.77;14.63;;;21.60;99.90;;;;;;5019582;28;20629;-81
2022/08/20 07:42:54;;;;;;;18.48;12.07;;;22.00;99.90;;;;;;5020282;28;20228;-81
2022/08/20 07:45:21;;;;;;;13.70;10.18;;;22.90;99.90;;;;;;5020919;28;20190;-82
2022/08/20 07:47:48;;;;;;;13.07;11.38;;;23.20;99.90;;;;;;5017285;28;20249;-83
2022/08/20 07:50:18;;;;;;;17.13;11.32;;;22.60;99.90;;;;;;5018315;28;20527;-83
2022/08/20 07:52:44;;;;;;;14.45;10.95;;;22.70;99.90;;;;;;5020144;28;20209;-83
2022/08/20 07:55:13;;;;;;;14.88;11.70;;;22.40;99.90;;;;;;5020326;28;20174;-83
2022/08/20 07:57:40;;;;;;;14.00;11.52;;;22.90;99.90;;;;;;5021010;28;20635;-80
2022/08/20 08:00:08;;;;;;;12.88;11.40;;;22.40;99.90;;;;;;5020327;28;20189;-81
2022/08/20 08:02:35;;;;;;;13.43;11.25;;;23.20;99.90;;;;;;5023435;28;20194;-81
2022/08/20 08:05:01;;;;;;;17.35;11.63;;;23.20;99.90;;;;;;5024121;28;20170;-82
2022/08/20 08:07:27;;;;;;;17.10;11.77;;;23.50;99.90;;;;;;5024084;28;20224;-81
2022/08/20 08:09:54;;;;;;;14.40;10.27;;;24.40;99.90;;;;;;5024289;28;20170;-83
2022/08/20 08:12:21;;;;;;;16.38;10.93;;;24.70;99.90;;;;;;5022846;28;20174;-83
2022/08/20 08:14:48;;;;;;;11.95;10.70;;;23.80;99.90;;;;;;5022424;28;20185;-83
2022/08/20 08:17:15;;;;;;;15.25;11.10;;;23.30;99.90;;;;;;5039696;28;20197;-83
2022/08/20 08:19:47;;;;;;;16.17;11.48;;;23.00;99.90;;;;;;5022209;28;20162;-82
2022/08/20 08:22:15;;;;;;;14.57;11.02;;;22.70;99.90;;;;;;5019927;28;20618;-83
2022/08/20 08:24:42;;;;;;;11.98;10.30;;;23.70;99.90;;;;;;5021148;28;20174;-83
2022/08/20 08:27:08;;;;;;;13.18;10.40;;;24.40;99.90;;;;;;5023157;28;20667;-84
2022/08/20 08:29:35;;;;;;;12.90;9.60;;;25.20;99.90;;;;;;5022750;28;20272;-84
2022/08/20 08:32:03;;;;;;;12.05;9.90;;;25.40;99.90;;;;;;5021065;28;20190;-84
2022/08/20 08:34:31;;;;;;;12.57;10.32;;;25.10;99.90;;;;;;5041730;28;20176;-83
2022/08/20 08:36:57;;;;;;;11.73;10.45;;;24.90;99.90;;;;;;5026255;28;20201;-83
2022/08/20 08:39:23;;;;;;;13.20;11.90;;;24.60;99.90;;;;;;5024170;28;20551;-83
2022/08/20 08:41:50;;;;;;;14.02;11.45;;;24.00;99.90;;;;;;5025784;28;20181;-83
2022/08/20 08:44:22;;;;;;;13.15;10.95;;;24.60;99.90;;;;;;5025082;28;20170;-83
2022/08/20 08:46:55;;;;;;;13.60;10.45;;;25.00;99.90;;;;;;5026034;28;20201;-83
2022/08/20 08:49:26;;;;;;;11.05;8.77;;;25.60;99.90;;;;;;5023971;28;20178;-83
2022/08/20 08:51:55;;;;;;;10.98;7.57;;;25.80;99.90;;;;;;5023516;28;20653;-83
2022/08/20 08:54:24;;;;;;;10.45;7.68;;;26.10;99.90;;;;;;5024809;28;20173;-83
2022/08/20 08:56:51;;;;;;;10.73;8.48;;;25.50;99.90;;;;;;5024492;28;20206;-84
2022/08/20 08:59:19;;;;;;;12.73;7.90;;;25.00;99.90;;;;;;5022554;28;20170;-83
2022/08/20 09:02:05;;;;;;;8.43;6.78;;;25.00;99.90;;;;;;5042237;28;20197;-83
2022/08/20 09:04:39;;;;;;;7.80;6.18;;;24.90;99.90;;;;;;5023103;28;20197;-82
2022/08/20 09:07:10;;;;;;;7.65;6.43;;;25.60;99.90;;;;;;5021505;28;20255;-83
2022/08/20 09:09:39;;;;;;;5.05;4.53;;;25.20;99.90;;;;;;5022426;28;20170;-83
2022/08/20 09:12:08;;;;;;;7.55;5.50;;;25.70;99.90;;;;;;5021277;28;20185;-82
2022/08/20 09:14:35;;;;;;;8.30;7.07;;;26.20;99.90;;;;;;5020841;28;20188;-83
2022/08/20 09:17:01;;;;;;;9.35;7.10;;;26.10;99.90;;;;;;5020215;28;20222;-82
2022/08/20 09:19:27;;;;;;;6.82;6.07;;;26.40;99.90;;;;;;5022157;28;20170;-83
2022/08/20 09:21:53;;;;;;;7.18;5.63;;;26.60;99.90;;;;;;5020072;28;20724;-82
2022/08/20 09:24:18;;;;;;;7.75;5.00;;;26.00;99.90;;;;;;5020713;28;20174;-82
2022/08/20 09:26:44;;;;;;;6.32;4.88;;;25.50;99.90;;;;;;5020973;28;20257;-82
2022/08/20 09:29:10;;;;;;;8.93;4.88;;;25.00;99.90;;;;;;5021598;28;20174;-82
2022/08/20 09:31:36;;;;;;;6.28;4.28;;;24.90;99.90;;;;;;5019579;28;20698;-82
2022/08/20 09:34:02;;;;;;;5.20;4.32;;;25.40;99.90;;;;;;5020177;28;20189;-82
2022/08/20 09:36:28;;;;;;;9.00;5.03;;;25.90;99.90;;;;;;5020751;28;20194;-82
2022/08/20 09:38:54;;;;;;;6.43;5.38;;;26.20;99.90;;;;;;5020516;28;20228;-82
2022/08/20 09:41:20;;;;;;;6.95;4.82;;;26.30;99.90;;;;;;5020768;28;20178;-82
2022/08/20 09:43:45;;;;;;;8.40;4.05;;;26.00;99.90;;;;;;5020722;28;20204;-82
2022/08/20 09:46:11;;;;;;;5.45;4.30;;;25.40;99.90;;;;;;5020714;28;20284;-82
2022/08/20 09:48:37;;;;;;;11.95;3.88;;;25.20;99.90;;;;;;5021423;28;20202;-82
2022/08/20 09:51:02;;;;;;;6.40;3.55;;;25.10;99.90;;;;;;5020587;28;20170;-82
2022/08/20 09:53:29;;;;;;;6.80;4.07;;;24.90;99.90;;;;;;5019632;28;20178;-81
2022/08/20 09:55:55;;;;;;;6.80;4.20;;;25.30;99.90;;;;;;5019958;28;20225;-81
2022/08/20 09:58:46;;;;;;;4.47;3.95;;;25.80;99.90;;;;;;5019638;28;20178;-81
2022/08/20 10:01:15;;;;;;;5.88;3.70;;;26.30;99.90;;;;;;5019464;28;20178;-82
2022/08/20 10:03:42;;;;;;;6.13;4.47;;;26.30;99.90;;;;;;5019246;28;20190;-82
2022/08/20 10:06:10;;;;;;;8.10;5.20;;;26.50;99.90;;;;;;5018494;28;20200;-79
2022/08/20 10:08:36;;;;;;;7.57;5.22;;;25.60;99.90;;;;;;5021968;28;20178;-83
2022/08/20 10:11:02;;;;;;;6.10;5.00;;;25.30;99.90;;;;;;5024154;28;20170;-83
2022/08/20 10:13:27;;;;;;;8.88;4.68;;;24.70;99.90;;;;;;5022331;28;20178;-82
2022/08/20 10:15:53;;;;;;;5.28;4.13;;;24.40;99.90;;;;;;5021349;28;20213;-83
2022/08/20 10:18:19;;;;;;;6.78;3.70;;;25.20;99.90;;;;;;5019343;28;20178;-83
2022/08/20 10:20:45;;;;;;;4.53;4.07;;;26.30;99.90;;;;;;5021929;28;20539;-82
2022/08/20 10:23:10;;;;;;;8.77;3.78;;;26.40;99.90;;;;;;4999144;28;20206;-83
2022/08/20 10:25:36;;;;;;;3.92;2.92;;;27.00;99.90;;;;;;5000282;28;20260;-84
2022/08/20 10:28:02;;;;;;;5.50;3.85;;;26.80;99.90;;;;;;5000056;28;20182;-83
2022/08/20 10:30:28;;;;;;;7.10;3.70;;;26.20;99.90;;;;;;4998578;28;20221;-83
2022/08/20 10:32:54;;;;;;;5.82;3.50;;;25.40;99.90;;;;;;5000394;28;20655;-83
2022/08/20 10:35:20;;;;;;;7.38;3.38;;;25.40;99.90;;;;;;5000456;28;20217;-83
2022/08/20 10:37:45;;;;;;;6.15;3.15;;;25.40;99.90;;;;;;5018199;28;20175;-83
2022/08/20 10:40:14;;;;;;;4.05;2.83;;;25.50;99.90;;;;;;4999359;28;20186;-83
2022/08/20 10:42:41;;;;;;;5.38;3.00;;;25.80;99.90;;;;;;4999533;28;20203;-83
2022/08/20 10:45:07;;;;;;;4.40;2.92;;;25.70;99.90;;;;;;4999591;28;20170;-83
2022/08/20 10:47:32;;;;;;;5.05;3.75;;;25.90;99.90;;;;;;4999759;28;20171;-82
2022/08/20 10:50:00;;;;;;;4.22;3.45;;;25.50;99.90;;;;;;4999862;28;20209;-83
2022/08/20 10:52:26;;;;;;;5.03;3.60;;;25.30;99.90;;;;;;4999441;28;20179;-83
2022/08/20 10:54:53;;;;;;;5.50;3.47;;;25.50;99.90;;;;;;4999724;28;20648;-83
2022/08/20 10:57:25;;;;;;;4.32;3.42;;;26.70;99.90;;;;;;5003046;28;20181;-83
2022/08/20 10:59:52;;;;;;;5.85;3.53;;;27.20;99.90;;;;;;5003761;28;20543;-83
2022/08/20 11:02:19;;;;;;;5.07;3.65;;;27.20;99.90;;;;;;5020488;28;20186;-82
2022/08/20 11:04:45;;;;;;;5.32;3.38;;;26.40;99.90;;;;;;5003124;28;20269;-82
2022/08/20 11:07:15;;;;;;;6.60;3.85;;;26.10;99.90;;;;;;5003018;28;20190;-82
2022/08/20 11:09:42;;;;;;;5.07;3.22;;;25.80;99.90;;;;;;4998902;28;20611;-78
2022/08/20 11:12:08;;;;;;;8.52;3.05;;;25.60;99.90;;;;;;4998593;28;20186;-76
2022/08/20 11:14:34;;;;;;;6.65;3.15;;;25.30;99.90;;;;;;4996536;28;20277;-76
2022/08/20 11:17:01;;;;;;;6.53;3.92;;;25.00;99.90;;;;;;4996166;28;20785;-77
2022/08/20 11:19:26;;;;;;;5.43;3.28;;;25.00;99.90;;;;;;4996402;28;20204;-76
2022/08/20 11:21:52;;;;;;;5.07;3.03;;;25.10;99.90;;;;;;4995654;28;20181;-77
2022/08/20 11:24:18;;;;;;;3.33;2.83;;;25.30;99.90;;;;;;4996434;28;20198;-76
2022/08/20 11:26:46;;;;;;;8.88;3.15;;;25.50;99.90;;;;;;4995731;28;20221;-76
2022/08/20 11:29:12;;;;;;;5.05;2.95;;;25.40;99.90;;;;;;4996068;28;20221;-77
2022/08/20 11:31:38;;;;;;;5.25;3.25;;;25.70;99.90;;;;;;5013657;28;20202;-78
2022/08/20 11:34:04;;;;;;;5.10;3.05;;;25.60;99.90;;;;;;4996521;28;20266;-79
2022/08/20 11:36:30;;;;;;;6.05;2.88;;;26.00;99.90;;;;;;4998450;28;20202;-79
2022/08/20 11:38:55;;;;;;;4.40;2.83;;;27.10;99.90;;;;;;4998150;28;20261;-79
2022/08/20 11:41:21;;;;;;;6.72;3.20;;;26.90;99.90;;;;;;5000328;28;20233;-82
2022/08/20 11:43:47;;;;;;;3.70;2.53;;;26.70;99.90;;;;;;5002977;28;20684;-86
2022/08/20 11:46:12;;;;;;;4.93;2.70;;;25.60;99.90;;;;;;5008312;28;20195;-82
2022/08/20 11:48:38;;;;;;;10.27;3.45;;;25.50;99.90;;;;;;5022723;28;20166;-82
2022/08/20 11:51:04;;;;;;;6.38;2.83;;;25.10;99.90;;;;;;5004533;28;20171;-82
2022/08/20 11:53:30;;;;;;;6.65;3.50;;;24.80;99.90;;;;;;5005574;28;20232;-81
2022/08/20 11:55:56;;;;;;;7.65;3.03;;;24.60;99.90;;;;;;5003332;28;20603;-82
2022/08/20 11:58:22;;;;;;;6.65;3.30;;;24.90;99.90;;;;;;5002645;28;20170;-82
2022/08/20 12:00:47;;;;;;;5.00;3.00;;;24.70;99.90;;;;;;5002860;28;20182;-81
2022/08/20 12:03:14;;;;;;;8.23;2.88;;;24.40;99.90;;;;;;5002514;28;20203;-82
2022/08/20 12:05:43;;;;;;;7.75;3.28;;;24.80;99.90;;;;;;5002159;28;20202;-81
2022/08/20 12:08:09;;;;;;;7.28;3.47;;;24.50;99.90;;;;;;5003660;28;20175;-83
2022/08/20 12:10:37;;;;;;;8.93;3.40;;;24.70;99.90;;;;;;5005249;28;20186;-83
2022/08/20 12:13:03;;;;;;;8.10;2.90;;;24.90;99.90;;;;;;5003932;28;20178;-83
2022/08/20 12:15:29;;;;;;;8.55;3.17;;;24.70;99.90;;;;;;5004375;28;20198;-83
2022/08/20 12:17:54;;;;;;;6.28;3.20;;;24.60;99.90;;;;;;5004942;28;20574;-84
2022/08/20 12:20:22;;;;;;;9.85;3.42;;;24.50;99.90;;;;;;5001637;28;20175;-83
2022/08/20 12:22:47;;;;;;;7.70;2.90;;;24.50;99.90;;;;;;5001200;28;20202;-83
2022/08/20 12:25:13;;;;;;;7.25;3.17;;;24.60;99.90;;;;;;4998322;28;20167;-83
2022/08/20 12:27:40;;;;;;;5.93;3.17;;;24.60;99.90;;;;;;4995661;28;20178;-83
2022/08/20 12:30:11;;;;;;;7.90;3.35;;;24.90;99.90;;;;;;4995894;28;20171;-83
2022/08/20 12:32:36;;;;;;;5.05;2.85;;;24.80;99.90;;;;;;4996188;28;20194;-83
2022/08/20 12:35:04;;;;;;;7.03;3.10;;;24.80;99.90;;;;;;4995371;28;20186;-82
2022/08/20 12:37:30;;;;;;;8.05;3.42;;;24.90;99.90;;;;;;4996193;28;20178;-81
2022/08/20 12:39:57;;;;;;;8.15;2.83;;;24.80;99.90;;;;;;4995824;28;20179;-82
2022/08/20 12:42:24;;;;;;;8.00;3.00;;;25.10;99.90;;;;;;4995691;28;20216;-81
2022/08/20 12:44:50;;;;;;;6.65;3.17;;;25.10;99.90;;;;;;5013627;28;20250;-81